Time;durP1;ratioP1;P1;durP2;ratioP2;P2;SDS_P1;SDS_P2;PMS_P1;PMS_P2;Temp;Humidity;BMP_temperature;BMP_pressure;BME280_temperature;BME280_humidity;BME280_pressure;Samples;Min_cycle;Max_cycle;Signal;HPM_P1;HPM_P2
2023/03/12 00:00:56;;;;;;;;;25.50;23.00;;;;;5.73;53.01;98060.63;6250981;27;96229;-63
2023/03/12 00:04:02;;;;;;;;;23.40;21.00;;;;;5.76;52.92;98064.75;6184135;28;96392;-62
2023/03/12 00:07:07;;;;;;;;;21.00;20.00;;;;;5.79;52.38;98069.66;6185520;28;96972;-62
2023/03/12 00:10:11;;;;;;;;;24.80;23.80;;;;;5.72;52.16;98069.66;6197492;28;96888;-62
2023/03/12 00:13:16;;;;;;;;;23.00;22.00;;;;;5.64;52.41;98070.72;6273222;27;96633;-62
2023/03/12 00:16:23;;;;;;;;;23.00;22.40;;;;;5.58;52.02;98078.75;6184179;28;97173;-63
2023/03/12 00:19:27;;;;;;;;;22.00;19.60;;;;;5.60;51.72;98074.03;6249562;27;96756;-62
2023/03/12 00:22:30;;;;;;;;;20.60;19.00;;;;;5.47;51.81;98084.78;6266371;27;97605;-62
2023/03/12 00:25:33;;;;;;;;;17.40;16.00;;;;;5.35;51.88;98086.41;6208288;28;96960;-62
2023/03/12 00:28:39;;;;;;;;;20.00;18.00;;;;;5.34;51.37;98084.78;6184310;28;96591;-62
2023/03/12 00:31:42;;;;;;;;;20.50;18.75;;;;;5.31;51.63;98088.69;6273353;27;96635;-63
2023/03/12 00:34:50;;;;;;;;;19.50;18.75;;;;;5.26;51.73;98082.31;6275363;27;98278;-62
2023/03/12 00:37:54;;;;;;;;;20.00;18.40;;;;;5.34;51.78;98098.97;6208529;28;96141;-63
2023/03/12 00:40:57;;;;;;;;;19.00;17.00;;;;;5.29;51.85;98097.94;6274886;27;96224;-62
2023/03/12 00:44:02;;;;;;;;;18.00;17.00;;;;;5.32;51.79;98097.53;6274610;27;99365;-62
2023/03/12 00:47:06;;;;;;;;;21.60;20.60;;;;;5.36;52.07;98098.75;6275380;27;96408;-62
2023/03/12 00:50:10;;;;;;;;;19.60;18.00;;;;;5.36;51.47;98091.56;6258121;27;98595;-63
2023/03/12 00:53:13;;;;;;;;;22.75;21.75;;;;;5.42;51.34;98104.09;6271982;27;96618;-62
2023/03/12 00:56:17;;;;;;;;;22.60;20.00;;;;;5.42;51.68;98095.28;6251300;27;96243;-62
2023/03/12 00:59:22;;;;;;;;;22.50;21.50;;;;;5.46;51.46;98104.50;6249723;27;98503;-62
2023/03/12 01:02:26;;;;;;;;;24.40;23.00;;;;;5.37;51.48;98111.09;6249277;27;96375;-62
2023/03/12 01:05:31;;;;;;;;;19.80;18.80;;;;;5.22;51.68;98114.00;6233990;27;98467;-62
2023/03/12 01:08:37;;;;;;;;;23.00;21.00;;;;;5.20;51.63;98111.53;6253835;27;96184;-62
2023/03/12 01:11:40;;;;;;;;;22.00;21.00;;;;;5.16;52.03;98114.81;6186533;28;96318;-62
2023/03/12 01:14:45;;;;;;;;;23.00;20.00;;;;;5.16;52.03;98112.13;6186677;28;96748;-62
2023/03/12 01:17:48;;;;;;;;;23.60;22.60;;;;;5.13;51.97;98121.38;6202360;28;96194;-62
2023/03/12 01:20:52;;;;;;;;;24.60;23.60;;;;;5.16;52.11;98118.31;6210999;27;96293;-62
2023/03/12 01:23:56;;;;;;;;;22.50;20.00;;;;;5.14;51.87;98132.88;6278803;27;96191;-63
2023/03/12 01:26:59;;;;;;;;;19.40;19.20;;;;;5.09;52.04;98130.00;6261099;27;96596;-63
2023/03/12 01:30:05;;;;;;;;;19.00;18.60;;;;;4.94;52.17;98126.72;6279227;27;96457;-60
2023/03/12 01:33:09;;;;;;;;;23.00;22.00;;;;;4.93;52.77;98125.91;6278862;27;96177;-62
2023/03/12 01:36:18;;;;;;;;;24.20;21.40;;;;;4.90;52.94;98125.47;6278898;27;97533;-62
2023/03/12 01:39:22;;;;;;;;;24.20;22.00;;;;;4.94;53.39;98121.38;6279338;27;96648;-63
2023/03/12 01:42:25;;;;;;;;;26.00;24.00;;;;;4.98;53.19;98118.09;6275230;27;96638;-62
2023/03/12 01:46:01;;;;;;;;;26.00;25.00;;;;;4.93;53.26;98135.78;6278353;27;96388;-62
2023/03/12 01:49:09;;;;;;;;;24.40;22.00;;;;;4.75;53.67;98128.34;6279020;27;97149;-62
2023/03/12 01:52:16;;;;;;;;;24.40;21.60;;;;;4.67;53.57;98101.84;6278934;27;96737;-62
2023/03/12 01:55:24;;;;;;;;;24.00;23.00;;;;;4.74;53.64;98129.38;6271606;27;96547;-62
2023/03/12 01:58:30;;;;;;;;;21.00;20.00;;;;;4.71;53.73;98127.94;6276163;27;96530;-62
2023/03/12 02:01:35;;;;;;;;;23.60;21.00;;;;;4.64;53.79;98126.28;6274987;27;96457;-62
2023/03/12 02:04:40;;;;;;;;;22.40;21.60;;;;;4.63;53.84;98130.78;6194653;28;96921;-63
2023/03/12 02:07:45;;;;;;;;;23.75;23.00;;;;;4.64;54.02;98126.28;6271072;27;96547;-62
2023/03/12 02:10:48;;;;;;;;;25.20;25.00;;;;;4.51;54.19;98134.25;6194803;27;96242;-62
2023/03/12 02:13:52;;;;;;;;;19.00;18.50;;;;;4.51;54.35;98140.41;6236727;27;98339;-62
2023/03/12 02:16:57;;;;;;;;;25.40;23.00;;;;;4.38;54.82;98140.38;6274298;27;96534;-63
2023/03/12 02:20:12;;;;;;;;;25.25;24.25;;;;;4.27;55.16;98151.63;6278063;27;96135;-62
2023/03/12 02:23:25;;;;;;;;;23.00;22.00;;;;;4.22;55.25;98149.53;6210257;28;96284;-62
2023/03/12 02:26:31;;;;;;;;;24.00;22.50;;;;;4.16;54.99;98157.50;6259262;27;99282;-62
2023/03/12 02:29:40;;;;;;;;;18.00;17.00;;;;;4.05;55.58;98153.59;6267231;27;97138;-62
2023/03/12 02:32:46;;;;;;;;;21.40;21.00;;;;;3.91;55.86;98149.19;6261043;27;99472;-63
2023/03/12 02:35:53;;;;;;;;;21.00;21.00;;;;;3.95;56.09;98165.63;6277772;27;96171;-62
2023/03/12 02:38:57;;;;;;;;;26.00;23.00;;;;;3.78;56.28;98157.13;6260094;27;98642;-62
2023/03/12 02:42:02;;;;;;;;;24.60;22.60;;;;;3.75;56.57;98171.69;6208481;28;96253;-62
2023/03/12 02:45:06;;;;;;;;;23.50;21.00;;;;;3.81;56.31;98178.06;6277170;27;96324;-62
2023/03/12 02:48:09;;;;;;;;;25.60;24.00;;;;;3.69;56.51;98168.97;6275554;27;98384;-62
2023/03/12 02:51:13;;;;;;;;;25.00;23.00;;;;;3.73;56.52;98172.88;6252483;27;96193;-62
2023/03/12 02:54:18;;;;;;;;;23.60;21.60;;;;;3.65;56.39;98168.53;6234720;27;96594;-62
2023/03/12 02:57:23;;;;;;;;;25.40;23.00;;;;;3.74;56.46;98185.19;6273869;27;96156;-62
2023/03/12 03:00:27;;;;;;;;;24.20;22.60;;;;;3.74;56.45;98186.03;6207657;27;96234;-63
2023/03/12 03:03:30;;;;;;;;;24.40;21.40;;;;;3.76;56.50;98191.97;6277334;27;96834;-63
2023/03/12 03:06:35;;;;;;;;;23.80;22.20;;;;;3.82;56.43;98195.69;6276493;27;96426;-62
2023/03/12 03:09:39;;;;;;;;;24.40;22.60;;;;;3.77;56.44;98203.44;6259899;27;98361;-62
2023/03/12 03:12:44;;;;;;;;;22.20;20.00;;;;;3.87;56.27;98202.09;6276987;27;96834;-62
2023/03/12 03:15:48;;;;;;;;;22.20;20.00;;;;;3.84;56.11;98204.31;6251303;27;96595;-62
2023/03/12 03:18:52;;;;;;;;;23.00;21.20;;;;;3.83;55.59;98208.00;6251993;27;98653;-62
2023/03/12 03:21:55;;;;;;;;;22.00;21.00;;;;;3.83;54.64;98208.84;6260289;27;98318;-62
2023/03/12 03:24:59;;;;;;;;;16.50;15.00;;;;;3.97;53.73;98211.56;6193461;28;96181;-62
2023/03/12 03:28:04;;;;;;;;;20.00;19.00;;;;;3.99;53.33;98212.22;6252085;27;98683;-62
2023/03/12 03:31:08;;;;;;;;;20.00;18.00;;;;;4.05;52.67;98228.28;6251689;27;98494;-63
2023/03/12 03:34:13;;;;;;;;;14.60;14.60;;;;;4.05;52.21;98214.94;6269565;27;96279;-62
2023/03/12 03:37:16;;;;;;;;;14.80;14.00;;;;;4.08;51.81;98238.53;6251939;27;96454;-62
2023/03/12 03:40:20;;;;;;;;;15.00;14.00;;;;;4.13;51.93;98240.59;6254552;27;96187;-62
2023/03/12 03:43:25;;;;;;;;;14.40;13.40;;;;;4.23;51.96;98238.41;6275932;27;96679;-61
2023/03/12 03:46:29;;;;;;;;;14.00;14.00;;;;;4.27;51.61;98247.66;6276877;27;96344;-62
2023/03/12 03:49:37;;;;;;;;;13.00;12.60;;;;;4.36;51.44;98243.81;6275996;27;96390;-62
2023/03/12 03:52:40;;;;;;;;;18.00;17.50;;;;;4.50;51.49;98248.19;6268098;27;96799;-62
2023/03/12 03:55:44;;;;;;;;;16.25;15.00;;;;;4.44;51.72;98257.00;6252163;27;96521;-62
2023/03/12 03:58:49;;;;;;;;;16.80;16.80;;;;;4.57;51.77;98256.22;6251579;27;96340;-62
2023/03/12 04:01:54;;;;;;;;;16.33;14.00;;;;;4.53;52.19;98255.81;6251463;27;96369;-62
2023/03/12 04:04:58;;;;;;;;;16.80;14.00;;;;;4.44;52.33;98265.00;6251352;27;96477;-62
2023/03/12 04:08:03;;;;;;;;;20.00;16.50;;;;;4.50;52.52;98269.53;6251174;27;96308;-61
2023/03/12 04:11:09;;;;;;;;;20.00;19.00;;;;;4.50;52.69;98264.19;6233461;27;96851;-62
2023/03/12 04:14:14;;;;;;;;;17.50;17.00;;;;;4.57;52.48;98274.91;6184474;28;96246;-62
2023/03/12 04:17:20;;;;;;;;;18.00;16.60;;;;;4.53;52.50;98279.84;6245484;27;96343;-62
2023/03/12 04:20:23;;;;;;;;;16.75;16.50;;;;;4.69;52.37;98265.34;6259053;27;97193;-62
2023/03/12 04:23:27;;;;;;;;;17.00;16.50;;;;;4.73;51.81;98278.09;6253778;27;96592;-62
2023/03/12 04:26:31;;;;;;;;;17.00;16.00;;;;;4.76;51.57;98280.34;6250630;27;96339;-62
2023/03/12 04:29:39;;;;;;;;;19.00;18.00;;;;;4.60;51.84;98256.66;6269034;27;96285;-62
2023/03/12 04:32:43;;;;;;;;;14.00;13.00;;;;;4.63;52.04;98277.63;6247915;27;96322;-62
2023/03/12 04:35:51;;;;;;;;;15.60;15.00;;;;;4.58;52.15;98281.91;6274605;27;97864;-62
2023/03/12 04:38:56;;;;;;;;;15.60;15.00;;;;;4.59;51.85;98275.56;6259391;27;96918;-62
2023/03/12 04:42:04;;;;;;;;;15.00;13.60;;;;;4.63;51.45;98279.47;6269985;27;96563;-60
2023/03/12 04:45:11;;;;;;;;;16.00;15.00;;;;;4.59;51.63;98275.56;6293011;27;96822;-60
2023/03/12 04:48:19;;;;;;;;;14.00;13.00;;;;;4.55;51.70;98283.09;6282906;27;96160;-60
2023/03/12 04:51:23;;;;;;;;;16.60;14.00;;;;;4.47;51.28;98277.94;6256778;27;96683;-60
2023/03/12 04:54:27;;;;;;;;;14.25;12.75;;;;;4.50;51.46;98272.19;6292228;27;96913;-60
2023/03/12 04:57:30;;;;;;;;;13.00;12.00;;;;;4.50;51.04;98287.38;6301543;27;96303;-61
2023/03/12 05:00:36;;;;;;;;;16.40;15.20;;;;;4.46;51.22;98278.13;6300103;27;96249;-60
2023/03/12 05:03:39;;;;;;;;;20.00;18.40;;;;;4.49;51.08;98278.59;6298270;27;96302;-60
2023/03/12 05:06:43;;;;;;;;;13.60;12.00;;;;;4.45;50.64;98287.19;6228017;28;96920;-61
2023/03/12 05:09:46;;;;;;;;;14.00;14.00;;;;;4.41;50.71;98283.25;6273711;27;96486;-61
2023/03/12 05:12:50;;;;;;;;;16.00;15.50;;;;;4.28;50.94;98282.16;6214205;28;96195;-61
2023/03/12 05:15:56;;;;;;;;;13.00;12.00;;;;;4.26;51.23;98286.84;6288179;27;96626;-61
2023/03/12 05:19:01;;;;;;;;;13.00;13.00;;;;;4.27;50.99;98285.84;6291548;27;96439;-60
2023/03/12 05:22:05;;;;;;;;;13.40;13.40;;;;;4.20;51.15;98284.16;6303638;27;96410;-60
2023/03/12 05:25:10;;;;;;;;;17.50;16.00;;;;;4.23;51.02;98299.78;6292866;27;96569;-60
2023/03/12 05:28:14;;;;;;;;;16.00;14.50;;;;;4.19;51.10;98293.19;6291624;27;96804;-61
2023/03/12 05:31:19;;;;;;;;;16.00;16.00;;;;;4.23;50.88;98300.59;6210542;28;96281;-60
2023/03/12 05:34:23;;;;;;;;;16.60;16.00;;;;;4.16;50.79;98312.22;6263360;27;98817;-60
2023/03/12 05:37:28;;;;;;;;;14.00;14.00;;;;;4.21;50.59;98310.63;6292063;27;96811;-60
2023/03/12 05:40:31;;;;;;;;;15.80;14.80;;;;;4.25;50.60;98303.88;6265989;27;97050;-61
2023/03/12 05:43:35;;;;;;;;;15.00;13.00;;;;;4.45;49.80;98319.22;6294127;27;96733;-60
2023/03/12 05:46:40;;;;;;;;;12.25;12.00;;;;;4.63;48.89;98312.31;6280784;27;96764;-60
2023/03/12 05:49:44;;;;;;;;;11.60;11.40;;;;;4.91;48.57;98322.09;6261006;27;96747;-60
2023/03/12 05:52:47;;;;;;;;;14.00;14.00;;;;;4.99;47.82;98330.75;6293774;27;98324;-61
2023/03/12 05:55:50;;;;;;;;;12.20;12.00;;;;;5.21;47.42;98334.13;6289124;27;96611;-61
2023/03/12 05:58:54;;;;;;;;;13.00;13.00;;;;;5.18;46.62;98338.00;6270395;27;96411;-60
2023/03/12 06:01:59;;;;;;;;;15.75;14.50;;;;;5.44;47.16;98347.13;6274746;27;96911;-60
2023/03/12 06:05:03;;;;;;;;;16.00;15.40;;;;;5.63;46.39;98347.19;6275664;27;97286;-60
2023/03/12 06:08:06;;;;;;;;;11.40;11.40;;;;;5.91;45.37;98344.34;6205592;28;96272;-60
2023/03/12 06:11:10;;;;;;;;;12.25;11.25;;;;;6.09;44.40;98349.09;6274103;27;96639;-61
2023/03/12 06:14:14;;;;;;;;;12.60;12.60;;;;;6.38;44.34;98355.88;6272601;27;96603;-59
2023/03/12 06:17:18;;;;;;;;;12.00;12.00;;;;;6.62;43.67;98349.88;6259348;27;96646;-60
2023/03/12 06:20:23;;;;;;;;;11.25;11.25;;;;;6.75;42.94;98365.06;6265687;27;96262;-60
2023/03/12 06:23:26;;;;;;;;;13.00;12.00;;;;;6.83;42.74;98357.66;6273101;27;96833;-61
2023/03/12 06:26:30;;;;;;;;;12.25;11.75;;;;;6.88;42.59;98365.88;6202175;28;96003;-61
2023/03/12 06:29:33;;;;;;;;;11.25;10.75;;;;;6.81;41.70;98365.06;6199283;28;96419;-60
2023/03/12 06:32:38;;;;;;;;;13.20;12.20;;;;;6.93;41.89;98368.75;6200121;28;96291;-61
2023/03/12 06:35:41;;;;;;;;;11.00;10.00;;;;;7.20;41.63;98371.31;6200920;28;96760;-61
2023/03/12 06:38:45;;;;;;;;;11.00;10.00;;;;;7.21;40.79;98370.28;6206173;28;96240;-61
2023/03/12 06:41:49;;;;;;;;;12.75;11.75;;;;;7.56;41.11;98371.56;6208274;28;97093;-61
2023/03/12 06:44:52;;;;;;;;;13.00;12.00;;;;;7.96;40.21;98382.88;6271977;27;96835;-63
2023/03/12 06:47:57;;;;;;;;;13.00;12.00;;;;;8.12;39.41;98387.69;6205638;28;96468;-62
2023/03/12 06:51:00;;;;;;;;;12.00;12.00;;;;;8.06;39.53;98375.13;6248454;27;96598;-62
2023/03/12 06:54:04;;;;;;;;;12.00;11.00;;;;;7.86;39.42;98381.72;6268285;27;98348;-61
2023/03/12 06:57:07;;;;;;;;;13.00;12.75;;;;;7.74;39.18;98390.44;6197494;28;96314;-62
2023/03/12 07:00:12;;;;;;;;;9.40;8.20;;;;;7.68;39.83;98395.84;6194931;27;97256;-62
2023/03/12 07:03:17;;;;;;;;;12.00;11.00;;;;;7.71;40.61;98409.66;6189844;28;96702;-62
2023/03/12 07:06:22;;;;;;;;;13.00;12.60;;;;;7.59;39.79;98399.81;6249521;27;96185;-62
2023/03/12 07:09:25;;;;;;;;;9.80;8.20;;;;;7.50;40.00;98388.50;6204087;28;97348;-62
2023/03/12 07:12:28;;;;;;;;;13.80;12.00;;;;;8.00;38.88;98391.31;6192995;28;97071;-61
2023/03/12 07:15:32;;;;;;;;;11.50;11.25;;;;;8.39;38.45;98409.00;6196983;28;96355;-62
2023/03/12 07:18:37;;;;;;;;;12.00;11.00;;;;;8.24;37.96;98404.75;6193519;28;96861;-62
2023/03/12 07:21:40;;;;;;;;;10.80;10.80;;;;;8.23;38.40;98399.59;6203459;28;97005;-62
2023/03/12 07:24:43;;;;;;;;;9.00;8.00;;;;;8.02;36.96;98405.31;6193973;28;97038;-62
2023/03/12 07:27:47;;;;;;;;;10.00;10.00;;;;;7.79;37.05;98403.19;6200863;28;96945;-62
2023/03/12 07:30:50;;;;;;;;;10.60;9.60;;;;;9.43;35.67;98396.31;6265161;27;96596;-62
2023/03/12 07:33:55;;;;;;;;;10.40;9.40;;;;;10.21;33.40;98390.09;6200698;27;96795;-62
2023/03/12 07:36:59;;;;;;;;;8.40;7.60;;;;;11.11;31.37;98391.41;6263474;27;96367;-62
2023/03/12 07:40:06;;;;;;;;;11.00;10.00;;;;;10.89;31.85;98390.38;6269400;27;96636;-62
2023/03/12 07:43:11;;;;;;;;;8.60;8.00;;;;;11.34;31.59;98387.81;6198533;28;96540;-62
2023/03/12 07:46:16;;;;;;;;;8.60;8.00;;;;;12.83;29.38;98389.16;6269329;27;96600;-62
2023/03/12 07:49:21;;;;;;;;;7.40;7.40;;;;;12.89;28.73;98392.78;6197699;28;96753;-63
2023/03/12 07:52:24;;;;;;;;;8.00;8.00;;;;;13.13;27.94;98385.28;6259000;27;97442;-62
2023/03/12 07:55:28;;;;;;;;;8.00;8.00;;;;;14.36;26.79;98394.53;6236959;27;98430;-62
2023/03/12 07:58:32;;;;;;;;;10.00;9.20;;;;;14.25;25.55;98383.59;6260619;27;96613;-62
2023/03/12 08:01:35;;;;;;;;;7.00;6.00;;;;;14.28;26.45;98395.78;6184378;28;96850;-62
2023/03/12 08:04:40;;;;;;;;;7.60;7.00;;;;;13.01;27.27;98399.69;6257158;27;97748;-62
2023/03/12 08:07:44;;;;;;;;;13.00;13.00;;;;;12.23;29.03;98380.91;6185039;28;96435;-62
2023/03/12 08:10:48;;;;;;;;;11.20;10.60;;;;;11.82;29.77;98387.47;6190099;28;97011;-62
2023/03/12 08:13:52;;;;;;;;;8.20;7.20;;;;;11.58;30.49;98400.19;6245845;27;96560;-63
2023/03/12 08:16:55;;;;;;;;;7.00;7.00;;;;;11.44;30.71;98401.53;6189796;28;97624;-62
2023/03/12 08:20:00;;;;;;;;;9.00;8.00;;;;;11.22;30.20;98395.97;6213043;27;96587;-62
2023/03/12 08:23:03;;;;;;;;;6.20;5.20;;;;;12.79;28.48;98395.31;6192015;27;97112;-62
2023/03/12 08:26:06;;;;;;;;;7.40;6.40;;;;;14.26;27.28;98396.06;6198368;27;96557;-63
2023/03/12 08:29:10;;;;;;;;;7.00;6.00;;;;;15.08;25.28;98390.19;6189659;28;96296;-62
2023/03/12 08:32:13;;;;;;;;;7.50;7.00;;;;;15.88;23.49;98385.41;6269139;27;97029;-62
2023/03/12 08:35:18;;;;;;;;;6.00;6.00;;;;;16.16;23.05;98400.41;6266597;27;96368;-63
2023/03/12 08:38:24;;;;;;;;;5.60;5.60;;;;;16.64;22.54;98405.38;6184826;28;96944;-63
2023/03/12 08:41:29;;;;;;;;;6.80;5.60;;;;;17.11;22.93;98398.78;6184871;28;96642;-61
2023/03/12 08:44:32;;;;;;;;;4.50;4.50;;;;;16.74;22.95;98404.56;6186908;28;96864;-62
2023/03/12 08:47:36;;;;;;;;;7.00;6.00;;;;;16.57;22.53;98404.78;6183513;28;96603;-62
2023/03/12 08:50:41;;;;;;;;;6.00;6.00;;;;;16.61;22.13;98419.53;6192639;28;96638;-62
2023/03/12 08:53:45;;;;;;;;;6.50;6.50;;;;;16.59;21.95;98429.88;6242323;27;99984;-63
2023/03/12 08:56:50;;;;;;;;;6.60;5.60;;;;;17.50;21.64;98394.31;6259154;27;96719;-63
2023/03/12 08:59:54;;;;;;;;;6.20;6.20;;;;;18.15;21.39;98406.03;6247067;27;96791;-63
2023/03/12 09:02:58;;;;;;;;;5.00;5.00;;;;;18.57;21.02;98400.84;6192514;28;96681;-63
2023/03/12 09:06:11;;;;;;;;;6.00;6.00;;;;;18.17;20.57;98403.84;6192849;27;96676;-63
2023/03/12 09:09:15;;;;;;;;;5.00;5.00;;;;;18.76;21.43;98411.09;6213372;27;97098;-63
2023/03/12 09:12:18;;;;;;;;;6.00;6.00;;;;;18.92;19.93;98418.03;6256149;27;96537;-63
2023/03/12 09:15:22;;;;;;;;;4.00;4.00;;;;;18.65;20.43;98407.63;6264394;27;97116;-62
2023/03/12 09:18:25;;;;;;;;;6.00;6.00;;;;;18.67;20.23;98408.13;6269275;27;96477;-63
2023/03/12 09:21:30;;;;;;;;;7.00;7.00;;;;;18.74;20.55;98416.00;6261172;27;96681;-62
2023/03/12 09:24:34;;;;;;;;;5.60;5.60;;;;;18.94;20.36;98413.09;6256431;27;97430;-63
2023/03/12 09:27:37;;;;;;;;;5.60;5.60;;;;;18.50;20.20;98415.88;6258561;27;98699;-63
2023/03/12 09:30:41;;;;;;;;;6.00;5.40;;;;;18.57;20.28;98392.66;6191665;27;96977;-63
2023/03/12 09:33:45;;;;;;;;;5.00;5.00;;;;;18.43;20.10;98396.28;6194545;28;96778;-63
2023/03/12 09:36:51;;;;;;;;;4.50;4.00;;;;;18.38;21.37;98402.59;6194923;28;97339;-65
2023/03/12 09:39:54;;;;;;;;;6.00;6.00;;;;;18.21;21.09;98406.81;6208465;27;97090;-63
2023/03/12 09:43:02;;;;;;;;;6.00;5.50;;;;;18.35;20.94;98407.81;6250732;27;98938;-62
2023/03/12 09:46:15;;;;;;;;;6.00;5.00;;;;;18.57;21.21;98405.47;6264155;27;96716;-63
2023/03/12 09:49:23;;;;;;;;;5.00;4.00;;;;;18.84;20.04;98422.19;6259342;27;98335;-62
2023/03/12 09:52:32;;;;;;;;;5.40;5.00;;;;;18.82;20.31;98408.00;6276393;27;96691;-63
2023/03/12 09:55:39;;;;;;;;;5.40;5.40;;;;;19.01;20.54;98410.81;6266839;27;97519;-63
2023/03/12 09:58:46;;;;;;;;;6.00;5.40;;;;;18.94;19.66;98415.81;6204471;28;96605;-63
2023/03/12 10:01:54;;;;;;;;;6.00;4.00;;;;;19.21;20.20;98418.81;6266626;27;96490;-63
2023/03/12 10:05:03;;;;;;;;;4.00;4.00;;;;;19.56;20.30;98414.94;6265705;27;96256;-63
2023/03/12 10:08:16;;;;;;;;;4.40;4.40;;;;;19.60;19.76;98421.44;6186049;28;96361;-63
2023/03/12 10:11:42;;;;;;;;;5.00;5.00;;;;;19.45;20.06;98422.44;6187581;27;96759;-63
2023/03/12 10:15:00;;;;;;;;;5.80;5.00;;;;;19.07;19.70;98419.78;6200704;28;96915;-63
2023/03/12 10:18:15;;;;;;;;;5.00;5.00;;;;;18.88;20.03;98414.25;6204415;27;97565;-63
2023/03/12 10:21:24;;;;;;;;;4.25;3.25;;;;;18.72;20.43;98408.09;6254073;27;96531;-63
2023/03/12 10:24:45;;;;;;;;;7.00;7.00;;;;;18.79;20.69;98414.06;6193338;28;96765;-63
2023/03/12 10:27:48;;;;;;;;;6.00;5.00;;;;;19.22;20.49;98384.13;6199663;28;96466;-63
2023/03/12 10:30:56;;;;;;;;;6.00;5.40;;;;;19.56;20.50;98408.63;6242391;27;97019;-63
2023/03/12 10:34:01;;;;;;;;;6.00;5.40;;;;;19.72;19.88;98401.88;6270482;27;97120;-62
2023/03/12 10:37:15;;;;;;;;;5.00;4.00;;;;;19.64;20.33;98395.16;6260947;27;96462;-62
2023/03/12 10:40:22;;;;;;;;;7.00;6.00;;;;;19.45;20.48;98410.66;6256116;27;96639;-63
2023/03/12 10:43:26;;;;;;;;;10.00;8.60;;;;;18.97;20.29;98409.78;6276039;27;97932;-63
2023/03/12 10:46:52;;;;;;;;;6.80;6.40;;;;;18.94;20.42;98413.91;6277811;27;96895;-63
2023/03/12 10:50:11;;;;;;;;;6.00;6.00;;;;;18.65;20.78;98413.06;6207253;27;96591;-64
2023/03/12 10:53:28;;;;;;;;;6.40;6.40;;;;;18.81;20.35;98400.94;6260245;27;96678;-63
2023/03/12 10:56:48;;;;;;;;;6.00;5.00;;;;;18.35;21.45;98405.06;6235691;27;98711;-63
2023/03/12 10:59:52;;;;;;;;;7.80;7.80;;;;;18.08;21.24;98413.72;6257768;27;98573;-61
2023/03/12 11:02:58;;;;;;;;;4.20;4.00;;;;;17.91;21.85;98408.63;6255881;27;99310;-63
2023/03/12 11:06:07;;;;;;;;;8.40;8.00;;;;;18.40;21.68;98411.31;6258555;27;98697;-63
2023/03/12 11:09:18;;;;;;;;;5.00;5.00;;;;;18.45;20.79;98411.28;6254826;27;97907;-62
2023/03/12 11:12:29;;;;;;;;;10.25;7.00;;;;;18.35;20.90;98414.09;6251943;27;96787;-62
2023/03/12 11:15:40;;;;;;;;;6.40;6.00;;;;;18.11;21.18;98426.78;6269611;27;96350;-63
2023/03/12 11:18:56;;;;;;;;;7.00;6.40;;;;;17.71;21.89;98411.44;6275531;27;96650;-63
2023/03/12 11:22:01;;;;;;;;;7.00;6.00;;;;;17.46;21.76;98422.41;6193912;28;96698;-63
2023/03/12 11:25:07;;;;;;;;;7.40;7.40;;;;;17.75;22.14;98415.22;6272837;27;96892;-61
2023/03/12 11:28:24;;;;;;;;;8.00;8.00;;;;;18.42;21.80;98414.56;6192943;27;96441;-61
2023/03/12 11:31:31;;;;;;;;;7.00;6.00;;;;;18.62;21.47;98419.09;6186709;28;96638;-61
2023/03/12 11:34:37;;;;;;;;;9.00;7.00;;;;;18.43;21.63;98421.66;6195904;27;96658;-62
2023/03/12 11:37:53;;;;;;;;;8.00;7.00;;;;;17.79;21.15;98421.75;6194525;28;98103;-62
2023/03/12 11:41:05;;;;;;;;;7.00;7.00;;;;;16.79;22.27;98427.16;6254284;27;97059;-63
2023/03/12 11:44:27;;;;;;;;;7.00;6.50;;;;;17.55;22.23;98423.44;6190823;28;96627;-62
2023/03/12 11:47:51;;;;;;;;;7.00;7.00;;;;;16.72;22.85;98429.31;6193893;27;98310;-61
2023/03/12 11:51:10;;;;;;;;;7.40;6.00;;;;;16.80;23.37;98430.69;6259717;27;98614;-63
2023/03/12 11:54:41;;;;;;;;;8.20;8.20;;;;;17.15;22.71;98432.56;6251220;27;97752;-63
2023/03/12 11:57:57;;;;;;;;;9.60;8.60;;;;;17.76;22.07;98422.31;6193383;28;97639;-62
2023/03/12 12:01:09;;;;;;;;;9.25;7.00;;;;;17.80;21.33;98428.03;6196377;27;96779;-63
2023/03/12 12:05:03;;;;;;;;;9.00;9.00;;;;;17.63;21.87;98433.84;6192236;27;97149;-62
2023/03/12 12:08:25;;;;;;;;;9.00;8.00;;;;;18.03;21.76;98433.63;6186969;27;96922;-62
2023/03/12 12:11:40;;;;;;;;;7.20;7.20;;;;;17.89;21.24;98443.53;6150221;27;98945;-62
2023/03/12 12:14:57;;;;;;;;;9.00;9.00;;;;;18.35;21.58;98435.91;6142764;27;97424;-63
2023/03/12 12:18:20;;;;;;;;;8.60;7.60;;;;;18.76;21.22;98425.56;6168445;28;97125;-62
2023/03/12 12:21:35;;;;;;;;;8.60;8.60;;;;;18.73;20.93;98426.09;6167141;28;96406;-61
2023/03/12 12:24:54;;;;;;;;;8.00;8.00;;;;;18.55;20.68;98430.34;6148292;27;96826;-63
2023/03/12 12:28:11;;;;;;;;;9.00;9.00;;;;;18.53;21.19;98431.69;6141033;28;97113;-62
2023/03/12 12:31:29;;;;;;;;;9.40;8.00;;;;;18.10;21.54;98446.97;6161257;28;97780;-63
2023/03/12 12:34:53;;;;;;;;;12.00;10.80;;;;;17.59;21.74;98446.41;6159927;28;96884;-62
2023/03/12 12:38:01;;;;;;;;;9.75;8.75;;;;;17.16;21.60;98437.72;6161949;28;96624;-62
2023/03/12 12:41:09;;;;;;;;;11.00;10.00;;;;;17.36;22.41;98436.06;6153044;28;96906;-61
2023/03/12 12:44:18;;;;;;;;;11.60;11.00;;;;;17.07;21.71;98431.22;6191935;28;97931;-62
2023/03/12 12:47:32;;;;;;;;;9.50;9.00;;;;;16.93;22.17;98435.59;6186729;28;96804;-62
2023/03/12 12:50:39;;;;;;;;;8.60;8.60;;;;;16.81;22.48;98446.75;6191733;28;96918;-61
2023/03/12 12:53:50;;;;;;;;;12.00;11.00;;;;;16.03;23.40;98443.34;6186366;28;97125;-62
2023/03/12 12:57:00;;;;;;;;;9.60;8.00;;;;;16.14;24.08;98454.25;6181295;27;97333;-61
2023/03/12 13:00:19;;;;;;;;;10.00;10.00;;;;;16.07;23.25;98443.66;6257726;27;97008;-62
2023/03/12 13:03:25;;;;;;;;;7.80;7.00;;;;;16.08;23.99;98445.25;6263300;27;97183;-63
2023/03/12 13:06:54;;;;;;;;;9.25;9.25;;;;;16.21;23.99;98442.03;6257680;27;96896;-62
2023/03/12 13:09:58;;;;;;;;;9.00;9.00;;;;;16.21;23.77;98441.22;6233808;27;97727;-61
2023/03/12 13:13:09;;;;;;;;;7.20;7.20;;;;;16.02;23.79;98430.03;6187873;28;96520;-63
2023/03/12 13:16:26;;;;;;;;;9.00;8.00;;;;;16.25;24.04;98440.41;6266325;27;97061;-62
2023/03/12 13:19:30;;;;;;;;;9.25;9.25;;;;;16.12;24.06;98446.38;6261201;27;97575;-62
2023/03/12 13:22:54;;;;;;;;;7.40;6.40;;;;;15.84;23.77;98434.03;6261887;27;96710;-62
2023/03/12 13:26:03;;;;;;;;;9.00;8.00;;;;;15.56;24.12;98437.19;6190223;28;96540;-62
2023/03/12 13:29:21;;;;;;;;;9.00;9.00;;;;;15.03;24.68;98440.94;6250216;27;96938;-63
2023/03/12 13:32:53;;;;;;;;;9.00;9.00;;;;;14.63;25.36;98442.25;6263426;27;97599;-63
2023/03/12 13:36:09;;;;;;;;;9.00;9.00;;;;;14.77;25.02;98441.81;6191229;27;96681;-62
2023/03/12 13:39:30;;;;;;;;;9.50;8.50;;;;;14.76;24.95;98416.56;6257458;27;98130;-62
2023/03/12 13:42:40;;;;;;;;;8.80;8.00;;;;;14.76;24.89;98429.34;6186772;28;96735;-62
2023/03/12 13:45:58;;;;;;;;;10.00;8.60;;;;;15.04;24.95;98451.53;6192649;28;97805;-62
2023/03/12 13:49:06;;;;;;;;;11.00;9.00;;;;;15.22;24.23;98446.75;6188454;28;97448;-62
2023/03/12 13:52:22;;;;;;;;;8.00;8.00;;;;;14.89;24.44;98450.59;6196834;27;97226;-62
2023/03/12 13:55:29;;;;;;;;;11.00;10.00;;;;;14.97;24.73;98444.69;6261739;27;97363;-63
2023/03/12 13:58:41;;;;;;;;;9.40;9.40;;;;;14.79;24.90;98440.50;6195809;28;96650;-62
2023/03/12 14:01:49;;;;;;;;;8.25;8.25;;;;;14.79;24.90;98439.66;6192394;28;96552;-62
2023/03/12 14:04:54;;;;;;;;;8.00;8.00;;;;;14.67;25.03;98440.66;6216979;27;96381;-62
2023/03/12 14:08:21;;;;;;;;;9.00;8.25;;;;;14.32;24.91;98424.84;6196998;28;96389;-61
2023/03/12 14:11:48;;;;;;;;;9.00;9.00;;;;;13.78;25.51;98431.34;6267663;27;96958;-63
2023/03/12 14:15:04;;;;;;;;;8.80;8.60;;;;;13.69;25.83;98435.53;6291792;27;97272;-63
2023/03/12 14:18:15;;;;;;;;;7.60;7.60;;;;;13.75;25.61;98423.69;6273330;27;96663;-63
2023/03/12 14:21:21;;;;;;;;;6.40;6.40;;;;;13.77;25.49;98433.22;6262101;27;96908;-62
2023/03/12 14:24:29;;;;;;;;;7.00;7.00;;;;;13.62;25.54;98437.63;6266588;27;96258;-62
2023/03/12 14:27:35;;;;;;;;;7.00;6.00;;;;;13.23;26.08;98444.97;6286424;27;96480;-62
2023/03/12 14:30:49;;;;;;;;;10.00;9.00;;;;;13.16;26.47;98439.72;6257022;27;99356;-62
2023/03/12 14:33:58;;;;;;;;;6.40;6.40;;;;;13.06;26.93;98449.53;6266894;27;96384;-62
2023/03/12 14:37:06;;;;;;;;;9.00;8.00;;;;;13.17;27.18;98448.66;6209784;28;96173;-63